Time;durP1;ratioP1;P1;durP2;ratioP2;P2;SDS_P1;SDS_P2;PMS_P1;PMS_P2;Temp;Humidity;BMP_temperature;BMP_pressure;BME280_temperature;BME280_humidity;BME280_pressure;Samples;Min_cycle;Max_cycle;Signal;HPM_P1;HPM_P2
2021/07/12 00:00:21;;;;;;;6.97;3.50;;;;;;;13.65;100.00;96155.00;5065443;28;20048;-77
2021/07/12 00:02:48;;;;;;;5.80;3.50;;;;;;;13.57;100.00;96155.06;5039199;28;20035;-76
2021/07/12 00:05:14;;;;;;;10.20;3.37;;;;;;;13.54;100.00;96150.13;5033191;28;20029;-77
2021/07/12 00:07:41;;;;;;;5.93;3.33;;;;;;;13.51;100.00;96150.47;5021399;28;20036;-77
2021/07/12 00:10:09;;;;;;;7.77;3.73;;;;;;;13.49;100.00;96145.41;5039806;28;20037;-78
2021/07/12 00:12:35;;;;;;;7.47;3.67;;;;;;;13.48;100.00;96143.75;5023872;28;20421;-78
2021/07/12 00:15:01;;;;;;;5.40;2.93;;;;;;;13.46;100.00;96142.28;5052105;28;20018;-78
2021/07/12 00:17:27;;;;;;;4.87;3.47;;;;;;;13.41;100.00;96135.72;5049463;28;20076;-77
2021/07/12 00:19:52;;;;;;;6.03;3.70;;;;;;;13.42;100.00;96140.00;5057425;28;20029;-77
2021/07/12 00:22:21;;;;;;;5.23;3.63;;;;;;;13.36;100.00;96132.78;5034463;28;20040;-77
2021/07/12 00:24:47;;;;;;;6.33;3.17;;;;;;;13.37;100.00;96142.34;5039352;28;20029;-75
2021/07/12 00:27:13;;;;;;;6.97;4.20;;;;;;;13.35;100.00;96139.09;5032567;28;20029;-75
2021/07/12 00:29:38;;;;;;;7.47;3.37;;;;;;;13.35;100.00;96135.63;5057293;28;20024;-77
2021/07/12 00:32:05;;;;;;;7.87;4.17;;;;;;;13.28;100.00;96135.53;5037860;28;20087;-77
2021/07/12 00:34:30;;;;;;;7.03;4.37;;;;;;;13.17;100.00;96130.63;5039502;28;20029;-77
2021/07/12 00:36:56;;;;;;;5.97;3.90;;;;;;;13.14;100.00;96133.59;5039804;28;20099;-78
2021/07/12 00:39:22;;;;;;;7.80;4.40;;;;;;;13.16;100.00;96136.91;5039814;28;20033;-77
2021/07/12 00:41:48;;;;;;;6.87;3.97;;;;;;;13.19;100.00;96132.09;5041191;28;20036;-78
2021/07/12 00:44:15;;;;;;;6.77;3.60;;;;;;;13.13;100.00;96122.22;5056392;28;20063;-77
2021/07/12 00:46:40;;;;;;;8.60;4.77;;;;;;;13.15;100.00;96114.97;5049243;28;20033;-77
2021/07/12 00:49:06;;;;;;;8.73;4.07;;;;;;;13.19;100.00;96115.44;5047370;28;20447;-77
2021/07/12 00:51:32;;;;;;;6.33;3.90;;;;;;;13.20;100.00;96106.50;5056981;28;20049;-76
2021/07/12 00:53:59;;;;;;;6.07;4.20;;;;;;;13.04;100.00;96096.06;5042180;28;20088;-77
2021/07/12 00:56:31;;;;;;;7.78;4.03;;;;;;;13.07;100.00;96096.53;5024415;28;20025;-77
2021/07/12 00:59:01;;;;;;;7.70;3.93;;;;;;;13.02;100.00;96092.81;5019109;28;20041;-77
2021/07/12 01:01:29;;;;;;;6.20;4.43;;;;;;;12.94;100.00;96089.22;5030427;28;20060;-77
2021/07/12 01:03:56;;;;;;;7.30;4.77;;;;;;;12.94;100.00;96080.47;5055904;28;20056;-77
2021/07/12 01:06:22;;;;;;;7.27;4.13;;;;;;;12.92;100.00;96078.03;5053580;28;20061;-77
2021/07/12 01:08:49;;;;;;;7.77;4.27;;;;;;;12.94;100.00;96081.31;5038796;28;20080;-77
2021/07/12 01:12:02;;;;;;;8.93;4.97;;;;;;;12.94;100.00;96072.56;5059393;28;20032;-76
2021/07/12 01:15:01;;;;;;;6.17;3.90;;;;;;;13.01;100.00;96065.59;5046344;28;20075;-75
2021/07/12 01:18:15;;;;;;;9.23;4.03;;;;;;;13.07;100.00;96069.31;5051397;28;20060;-77
2021/07/12 01:21:16;;;;;;;6.10;4.00;;;;;;;13.04;100.00;96070.47;5058789;28;20167;-76
2021/07/12 01:24:03;;;;;;;6.20;4.03;;;;;;;12.97;100.00;96078.28;5053566;28;20033;-77
2021/07/12 01:27:08;;;;;;;5.70;3.80;;;;;;;12.94;100.00;96065.47;5047200;28;20029;-75
2021/07/12 01:30:07;;;;;;;7.47;4.20;;;;;;;12.93;100.00;96063.00;5026010;28;20040;-77
2021/07/12 01:32:43;;;;;;;8.67;3.67;;;;;;;12.87;100.00;96059.25;5023909;28;20114;-77
2021/07/12 01:35:45;;;;;;;6.33;4.00;;;;;;;12.88;100.00;96060.91;5058008;28;20063;-75
2021/07/12 01:38:40;;;;;;;5.97;3.87;;;;;;;12.87;100.00;96048.69;5033145;28;20048;-77
2021/07/12 01:41:23;;;;;;;6.80;3.40;;;;;;;12.90;100.00;96058.06;5026094;28;20045;-77
2021/07/12 01:43:54;;;;;;;7.70;4.37;;;;;;;12.90;100.00;96055.44;5020919;28;20029;-77
2021/07/12 01:46:31;;;;;;;7.13;4.03;;;;;;;12.90;100.00;96050.97;5020758;28;20034;-76
2021/07/12 01:49:27;;;;;;;9.33;4.63;;;;;;;12.89;100.00;96046.72;5041941;28;20397;-76
2021/07/12 01:52:18;;;;;;;5.63;3.47;;;;;;;12.87;100.00;96032.84;5038447;28;20272;-77
2021/07/12 01:55:02;;;;;;;6.00;2.90;;;;;;;12.88;100.00;96034.53;5041353;28;20042;-77
2021/07/12 01:57:34;;;;;;;6.47;3.42;;;;;;;12.91;100.00;96042.09;5019451;28;20028;-77
2021/07/12 02:00:06;;;;;;;6.43;3.67;;;;;;;12.87;100.00;96032.84;5022909;28;20029;-77
2021/07/12 02:02:50;;;;;;;5.63;3.20;;;;;;;12.86;100.00;96036.50;5058591;28;20068;-77
2021/07/12 02:05:26;;;;;;;6.13;3.30;;;;;;;12.83;100.00;96028.94;5046896;28;20033;-77
2021/07/12 02:07:54;;;;;;;6.00;3.33;;;;;;;12.85;100.00;96034.88;5058601;28;20117;-75
2021/07/12 02:10:27;;;;;;;8.37;3.70;;;;;;;12.77;100.00;96037.56;5023594;28;20025;-77
2021/07/12 02:13:00;;;;;;;6.33;4.27;;;;;;;12.72;100.00;96024.91;5027081;28;20033;-75
2021/07/12 02:15:34;;;;;;;6.23;4.37;;;;;;;12.67;100.00;96027.25;5022598;28;20021;-77
2021/07/12 02:18:09;;;;;;;8.17;4.30;;;;;;;12.60;100.00;96026.31;5052957;28;20040;-77
2021/07/12 02:20:43;;;;;;;7.27;4.20;;;;;;;12.63;100.00;96025.16;5025238;28;20025;-76
2021/07/12 02:23:10;;;;;;;7.53;4.43;;;;;;;12.62;100.00;96019.06;5044745;28;20033;-76
2021/07/12 02:25:40;;;;;;;8.33;4.33;;;;;;;12.70;100.00;96024.25;5054084;28;20025;-75
2021/07/12 02:28:10;;;;;;;7.70;4.80;;;;;;;12.74;100.00;96027.34;5033198;28;20033;-75
2021/07/12 02:30:38;;;;;;;5.60;3.60;;;;;;;12.72;100.00;96035.47;5068621;28;20040;-76
2021/07/12 02:33:05;;;;;;;5.93;3.50;;;;;;;12.65;100.00;96031.09;5026909;28;20032;-77
2021/07/12 02:35:32;;;;;;;7.60;4.30;;;;;;;12.63;100.00;96036.50;5042642;28;20040;-75
2021/07/12 02:37:58;;;;;;;7.37;4.30;;;;;;;12.59;100.00;96037.06;5026475;28;20021;-77
2021/07/12 02:40:24;;;;;;;6.43;4.17;;;;;;;12.57;100.00;96037.22;5021127;28;20128;-76
2021/07/12 02:42:56;;;;;;;6.90;4.10;;;;;;;12.55;100.00;96027.88;5036541;28;20079;-76
2021/07/12 02:45:25;;;;;;;8.23;4.50;;;;;;;12.50;100.00;96031.81;5041953;28;20063;-77
2021/07/12 02:47:54;;;;;;;8.67;5.10;;;;;;;12.43;100.00;96030.91;5059471;28;20067;-76
2021/07/12 02:50:22;;;;;;;7.70;5.33;;;;;;;12.33;100.00;96027.66;5024332;28;20023;-77
2021/07/12 02:53:31;;;;;;;6.93;4.73;;;;;;;12.33;100.00;96026.84;5026747;28;20654;-75
2021/07/12 02:55:58;;;;;;;6.73;4.93;;;;;;;12.40;100.00;96031.25;4928261;29;20027;-77
2021/07/12 02:58:24;;;;;;;7.03;4.97;;;;;;;12.40;100.00;96020.69;4946839;28;20091;-77
2021/07/12 03:00:51;;;;;;;8.43;4.97;;;;;;;12.31;100.00;96026.19;4986925;28;20037;-76
2021/07/12 03:03:17;;;;;;;6.93;4.53;;;;;;;12.26;100.00;96022.28;5027441;28;20058;-77
2021/07/12 03:05:44;;;;;;;8.33;5.70;;;;;;;12.24;100.00;96020.81;5044800;28;20078;-77
2021/07/12 03:08:10;;;;;;;10.70;5.20;;;;;;;12.26;100.00;96016.19;5057552;28;20051;-77
2021/07/12 03:10:41;;;;;;;8.60;4.70;;;;;;;12.25;100.00;96018.00;5020121;28;20106;-77
2021/07/12 03:13:11;;;;;;;7.80;4.60;;;;;;;12.31;100.00;96021.75;5038795;28;20037;-77
2021/07/12 03:15:43;;;;;;;8.87;4.70;;;;;;;12.29;100.00;96020.28;5023147;28;20037;-76
2021/07/12 03:18:22;;;;;;;9.37;4.70;;;;;;;12.24;100.00;96020.81;5016047;28;20098;-77
2021/07/12 03:20:51;;;;;;;9.93;5.17;;;;;;;12.16;100.00;96024.31;5039245;28;20119;-77
2021/07/12 03:23:18;;;;;;;8.23;4.83;;;;;;;12.20;100.00;96019.50;5032640;28;20032;-77
2021/07/12 03:25:52;;;;;;;9.33;5.57;;;;;;;12.25;100.00;96022.47;5035968;28;20037;-77
2021/07/12 03:28:19;;;;;;;9.23;5.17;;;;;;;12.25;100.00;96020.63;5020813;28;20511;-77
2021/07/12 03:30:48;;;;;;;8.90;5.23;;;;;;;12.27;100.00;96025.72;5039528;28;20021;-75
2021/07/12 03:33:16;;;;;;;8.20;5.40;;;;;;;12.25;100.00;96017.19;5039326;28;20043;-77
2021/07/12 03:35:46;;;;;;;8.27;5.37;;;;;;;12.32;100.00;96012.84;5056916;28;20109;-75
2021/07/12 03:38:15;;;;;;;7.90;4.43;;;;;;;12.35;100.00;96019.59;5056208;28;20029;-76
2021/07/12 03:40:41;;;;;;;7.60;4.80;;;;;;;12.33;100.00;96024.22;5050597;28;20029;-77
2021/07/12 03:43:13;;;;;;;10.23;5.53;;;;;;;12.32;100.00;96026.03;5023269;28;20025;-77
2021/07/12 03:45:40;;;;;;;8.03;5.23;;;;;;;12.33;100.00;96014.47;5038985;28;20032;-75
2021/07/12 03:48:07;;;;;;;7.87;5.03;;;;;;;12.39;100.00;96026.97;5037652;28;20104;-77
2021/07/12 03:50:39;;;;;;;5.22;3.67;;;;;;;12.39;100.00;96011.16;5053785;28;20031;-76
2021/07/12 03:53:04;;;;;;;7.40;5.07;;;;;;;12.42;100.00;96013.44;5038860;28;20037;-77
2021/07/12 03:55:31;;;;;;;10.90;5.67;;;;;;;12.41;100.00;96009.16;5035620;28;20022;-77
2021/07/12 03:57:59;;;;;;;8.53;5.70;;;;;;;12.41;100.00;95997.81;5020068;28;20033;-77
2021/07/12 04:00:27;;;;;;;6.80;5.00;;;;;;;12.42;100.00;95997.63;5021716;28;20017;-77
2021/07/12 04:02:53;;;;;;;8.57;5.00;;;;;;;12.29;100.00;95986.00;5039060;28;20036;-77
2021/07/12 04:05:23;;;;;;;8.97;4.73;;;;;;;12.16;100.00;95992.69;5035576;28;20021;-77
2021/07/12 04:07:50;;;;;;;8.60;5.00;;;;;;;12.17;100.00;95993.50;5015119;28;20028;-75
2021/07/12 04:10:17;;;;;;;6.43;4.27;;;;;;;12.25;100.00;95996.91;5020061;28;20445;-77
2021/07/12 04:12:44;;;;;;;7.67;5.33;;;;;;;12.37;100.00;95993.84;5018945;28;20052;-77
2021/07/12 04:15:12;;;;;;;8.13;4.97;;;;;;;12.44;100.00;95995.63;5018519;28;20047;-75
2021/07/12 04:17:41;;;;;;;9.00;4.97;;;;;;;12.56;100.00;95987.28;5017750;28;20447;-76
2021/07/12 04:20:07;;;;;;;8.93;4.83;;;;;;;12.67;100.00;95994.78;5036161;28;20031;-77
2021/07/12 04:22:33;;;;;;;6.63;4.53;;;;;;;12.71;100.00;95988.97;5035792;28;20102;-74
2021/07/12 04:24:59;;;;;;;7.70;4.90;;;;;;;12.74;100.00;95990.41;5017479;28;20057;-77
2021/07/12 04:27:25;;;;;;;7.93;5.23;;;;;;;12.70;100.00;95994.41;5018814;28;20043;-77
2021/07/12 04:29:50;;;;;;;7.33;4.70;;;;;;;12.77;100.00;95995.34;5017406;28;20014;-76
2021/07/12 04:32:16;;;;;;;7.70;4.30;;;;;;;12.87;100.00;95995.91;5044394;28;20032;-77
2021/07/12 04:34:42;;;;;;;9.47;4.77;;;;;;;12.96;100.00;95984.28;5046097;28;20025;-77
2021/07/12 04:37:08;;;;;;;6.47;4.10;;;;;;;13.06;100.00;95989.31;5035045;28;20033;-77
2021/07/12 04:39:34;;;;;;;6.63;4.30;;;;;;;13.16;100.00;95989.03;5033450;28;20032;-75
2021/07/12 04:42:00;;;;;;;7.17;4.43;;;;;;;13.21;100.00;95992.78;5036419;28;20045;-76
2021/07/12 04:44:26;;;;;;;6.17;4.20;;;;;;;13.31;100.00;95991.72;5036704;28;20061;-78
2021/07/12 04:46:53;;;;;;;6.00;3.83;;;;;;;13.42;100.00;95994.72;5032482;28;20021;-77
2021/07/12 04:49:20;;;;;;;7.27;4.47;;;;;;;13.50;100.00;95985.06;5037306;28;20076;-77
2021/07/12 04:51:45;;;;;;;7.63;4.30;;;;;;;13.58;100.00;95977.88;5015062;28;20548;-76
2021/07/12 04:54:13;;;;;;;8.67;4.03;;;;;;;13.72;100.00;95976.22;5020508;28;20296;-77
2021/07/12 04:56:38;;;;;;;5.70;3.57;;;;;;;13.79;100.00;95977.09;5032779;28;20493;-79
2021/07/12 04:59:07;;;;;;;5.93;3.70;;;;;;;13.95;100.00;95962.00;5032416;28;20565;-77
2021/07/12 05:01:35;;;;;;;10.23;4.23;;;;;;;14.05;100.00;95958.06;5033528;28;20037;-77
2021/07/12 05:04:03;;;;;;;6.93;3.87;;;;;;;14.14;100.00;95956.94;5051605;28;20021;-77
2021/07/12 05:06:29;;;;;;;6.50;3.90;;;;;;;14.20;100.00;95951.91;5027097;28;20036;-76
2021/07/12 05:08:57;;;;;;;7.53;3.80;;;;;;;14.23;100.00;95949.69;5033989;28;20056;-76
2021/07/12 05:11:24;;;;;;;11.43;4.57;;;;;;;14.30;100.00;95950.59;5023226;28;20033;-76
2021/07/12 05:13:52;;;;;;;14.70;11.30;;;;;;;14.44;100.00;95950.69;5028896;28;20048;-76
2021/07/12 05:16:20;;;;;;;10.97;5.90;;;;;;;14.53;100.00;95950.41;5010646;28;20026;-77
2021/07/12 05:18:47;;;;;;;12.43;4.47;;;;;;;14.54;100.00;95964.47;5029867;28;20533;-77
2021/07/12 05:21:14;;;;;;;8.77;4.10;;;;;;;14.56;100.00;95965.09;5030281;28;20534;-77
2021/07/12 05:23:40;;;;;;;6.90;4.30;;;;;;;14.75;100.00;95963.59;5016835;28;20099;-77
2021/07/12 05:26:06;;;;;;;5.87;4.07;;;;;;;14.95;100.00;95963.75;5040501;28;20036;-77
2021/07/12 05:28:33;;;;;;;8.33;3.47;;;;;;;14.97;100.00;95956.44;5030524;28;20590;-78
2021/07/12 05:30:59;;;;;;;12.10;5.47;;;;;;;15.05;100.00;95951.81;5016358;28;20037;-76
2021/07/12 05:33:24;;;;;;;6.20;3.35;;;;;;;15.34;100.00;95949.94;5039720;28;20029;-77
2021/07/12 05:35:51;;;;;;;6.63;3.47;;;;;;;15.49;97.81;95955.09;5031475;28;20135;-76
2021/07/12 05:38:18;;;;;;;8.52;3.53;;;;;;;15.47;97.84;95950.03;5047748;28;20025;-76
2021/07/12 05:40:44;;;;;;;6.20;3.55;;;;;;;15.73;96.59;95952.00;5058849;28;20029;-78
2021/07/12 05:43:10;;;;;;;10.65;3.75;;;;;;;15.88;96.48;95959.78;5038101;28;20516;-78
2021/07/12 05:45:36;;;;;;;6.40;3.80;;;;;;;16.00;94.74;95954.75;5029852;28;20065;-78
2021/07/12 05:48:02;;;;;;;5.85;2.72;;;;;;;16.13;94.68;95949.47;5027676;28;20032;-78
2021/07/12 05:50:27;;;;;;;8.38;4.80;;;;;;;16.65;94.63;95955.84;5014608;28;20056;-78
2021/07/12 05:52:53;;;;;;;9.23;4.80;;;;;;;16.94;92.13;95959.16;5026693;28;20064;-78
2021/07/12 05:55:19;;;;;;;7.07;3.45;;;;;;;16.98;92.46;95955.06;5014744;28;20572;-78
2021/07/12 05:57:45;;;;;;;5.10;3.03;;;;;;;17.26;89.05;95948.69;5050271;28;20021;-78
2021/07/12 06:00:12;;;;;;;5.72;3.35;;;;;;;17.56;89.33;95931.19;5046351;28;20036;-81
2021/07/12 06:02:42;;;;;;;5.97;3.00;;;;;;;17.80;86.84;95932.34;5044471;28;20530;-77
2021/07/12 06:05:09;;;;;;;8.07;4.15;;;;;;;17.94;85.84;95930.47;5032012;28;20074;-78
2021/07/12 06:07:36;;;;;;;9.30;6.07;;;;;;;18.37;83.66;95933.25;5015959;28;20032;-79
2021/07/12 06:10:03;;;;;;;9.30;4.32;;;;;;;18.63;82.01;95933.28;5030153;28;20083;-79
2021/07/12 06:12:31;;;;;;;8.18;5.60;;;;;;;18.72;80.94;95934.69;5032302;28;20084;-77
2021/07/12 06:14:57;;;;;;;7.82;4.75;;;;;;;18.81;81.09;95933.38;5054051;28;20036;-80
2021/07/12 06:17:23;;;;;;;5.53;2.47;;;;;;;18.91;81.09;95939.00;5041292;28;20021;-80
2021/07/12 06:19:49;;;;;;;4.10;2.40;;;;;;;18.81;81.89;95934.22;5050245;28;20044;-78
2021/07/12 06:22:15;;;;;;;4.60;2.70;;;;;;;18.73;81.88;95941.66;5031714;28;20078;-78
2021/07/12 06:24:41;;;;;;;10.50;3.08;;;;;;;19.04;80.91;95928.22;5043210;28;20037;-78
2021/07/12 06:27:07;;;;;;;4.13;2.22;;;;;;;18.96;81.10;95930.38;5031348;28;20040;-79
2021/07/12 06:29:33;;;;;;;3.85;1.73;;;;;;;19.29;80.22;95927.38;5024009;28;20041;-78
2021/07/12 06:31:59;;;;;;;4.80;2.20;;;;;;;19.86;77.05;95919.97;5031495;28;20566;-76
2021/07/12 06:34:25;;;;;;;3.63;2.13;;;;;;;20.12;75.61;95920.66;5016987;28;20148;-78
2021/07/12 06:36:51;;;;;;;4.63;1.80;;;;;;;19.97;76.98;95921.06;5032017;28;20021;-79
2021/07/12 06:39:17;;;;;;;4.53;1.85;;;;;;;19.50;73.87;95918.13;5034041;28;20033;-78
2021/07/12 06:41:43;;;;;;;3.33;1.77;;;;;;;19.45;73.95;95918.81;5030082;28;20028;-78
2021/07/12 06:44:09;;;;;;;4.00;1.95;;;;;;;19.81;74.93;95924.34;5035209;28;20064;-78
2021/07/12 06:46:44;;;;;;;2.72;1.65;;;;;;;19.74;72.18;95922.56;5035804;28;20049;-77
2021/07/12 06:49:10;;;;;;;2.97;1.50;;;;;;;20.08;70.59;95927.50;5030918;28;20020;-78
2021/07/12 06:51:35;;;;;;;3.72;1.70;;;;;;;20.50;68.21;95931.00;5018831;28;20763;-78
2021/07/12 06:54:01;;;;;;;3.55;1.55;;;;;;;20.38;68.61;95928.28;5032314;28;20086;-78
2021/07/12 06:56:28;;;;;;;4.18;1.30;;;;;;;19.92;71.21;95924.44;5013545;28;20027;-78
2021/07/12 06:58:55;;;;;;;5.20;1.92;;;;;;;20.20;70.32;95917.69;5011692;28;20069;-78
2021/07/12 07:01:20;;;;;;;3.70;1.60;;;;;;;20.53;69.04;95927.91;5039642;28;20017;-78
2021/07/12 07:03:46;;;;;;;9.75;2.10;;;;;;;20.67;65.82;95937.31;5014622;28;20497;-78
2021/07/12 07:06:12;;;;;;;3.05;1.50;;;;;;;20.65;65.57;95922.56;5030462;28;20025;-77
2021/07/12 07:08:38;;;;;;;2.63;1.23;;;;;;;20.66;65.86;95930.38;5050950;28;20119;-78
2021/07/12 07:11:04;;;;;;;2.45;1.33;;;;;;;21.63;62.71;95911.16;5027824;28;20033;-78
2021/07/12 07:13:29;;;;;;;3.15;1.30;;;;;;;20.65;65.22;95912.69;5022968;28;20021;-78
2021/07/12 07:15:59;;;;;;;3.17;1.60;;;;;;;20.89;64.96;95902.84;5036303;28;20059;-78
2021/07/12 07:18:25;;;;;;;2.50;1.50;;;;;;;20.78;64.10;95906.31;5015433;28;20459;-78
2021/07/12 07:20:51;;;;;;;3.97;1.60;;;;;;;20.96;63.81;95897.38;5036820;28;20498;-79
2021/07/12 07:23:17;;;;;;;3.58;1.60;;;;;;;20.68;65.12;95903.41;5047434;28;20058;-78
2021/07/12 07:25:43;;;;;;;3.60;1.50;;;;;;;21.03;63.42;95898.09;5038145;28;20045;-78
2021/07/12 07:28:10;;;;;;;3.05;1.80;;;;;;;21.38;61.80;95887.38;5022929;28;20107;-78
2021/07/12 07:30:37;;;;;;;4.50;1.55;;;;;;;21.50;62.73;95881.19;5010939;28;20029;-78
2021/07/12 07:33:03;;;;;;;3.40;1.65;;;;;;;22.18;60.40;95883.06;5008782;28;20124;-78
2021/07/12 07:35:29;;;;;;;3.58;1.63;;;;;;;23.06;58.04;95881.53;5010656;28;20043;-78
2021/07/12 07:37:55;;;;;;;2.53;1.10;;;;;;;22.09;60.04;95873.75;5029164;28;20025;-79
2021/07/12 07:40:21;;;;;;;3.53;1.75;;;;;;;21.84;59.70;95872.22;5010410;28;20018;-79
2021/07/12 07:42:47;;;;;;;3.03;1.67;;;;;;;22.58;58.38;95869.53;5022393;28;20029;-79
2021/07/12 07:45:14;;;;;;;3.17;1.70;;;;;;;22.88;57.13;95870.25;5013447;28;20547;-78
2021/07/12 07:47:42;;;;;;;3.05;1.58;;;;;;;23.52;55.17;95871.41;5014007;28;20067;-78
2021/07/12 07:50:09;;;;;;;2.95;1.77;;;;;;;24.20;54.15;95866.53;5037469;28;20021;-78
2021/07/12 07:52:35;;;;;;;1.45;1.10;;;;;;;23.63;53.81;95869.66;5010276;28;20036;-79
2021/07/12 07:55:02;;;;;;;4.13;1.20;;;;;;;23.17;56.61;95863.72;5031768;28;20028;-78
2021/07/12 07:57:28;;;;;;;2.83;1.50;;;;;;;23.17;55.72;95858.38;5046880;28;20041;-78
2021/07/12 07:59:54;;;;;;;2.75;1.27;;;;;;;23.24;55.45;95864.34;5007485;28;20036;-78
2021/07/12 08:02:19;;;;;;;4.78;1.55;;;;;;;23.30;56.57;95860.66;5013326;28;20036;-78
2021/07/12 08:04:45;;;;;;;2.45;1.35;;;;;;;24.41;51.67;95853.31;5029740;28;20117;-78
2021/07/12 08:07:11;;;;;;;3.00;1.13;;;;;;;24.22;52.65;95852.88;5027520;28;20129;-78
2021/07/12 08:09:36;;;;;;;3.70;1.42;;;;;;;24.05;52.87;95841.44;5046984;28;20111;-78
2021/07/12 08:12:03;;;;;;;3.85;1.40;;;;;;;23.51;54.41;95848.34;5034576;28;20064;-78
2021/07/12 08:14:30;;;;;;;3.40;1.50;;;;;;;24.27;51.61;95839.47;5010214;28;20454;-78
2021/07/12 08:16:56;;;;;;;1.98;1.00;;;;;;;24.32;50.88;95836.03;5027228;28;20041;-78
2021/07/12 08:19:21;;;;;;;2.85;1.23;;;;;;;24.41;52.48;95826.44;5028394;28;20371;-79
2021/07/12 08:21:47;;;;;;;2.20;1.30;;;;;;;23.80;51.25;95823.16;5009003;28;20041;-78
2021/07/12 08:24:13;;;;;;;2.05;1.33;;;;;;;24.48;50.72;95821.69;5028360;28;20029;-79
2021/07/12 08:26:40;;;;;;;3.55;1.60;;;;;;;23.66;52.38;95812.78;5033299;28;20397;-78
2021/07/12 08:29:05;;;;;;;2.55;1.15;;;;;;;25.13;50.25;95814.31;5020097;28;20115;-78
2021/07/12 08:31:31;;;;;;;2.28;1.45;;;;;;;25.37;50.48;95807.41;5012015;28;20039;-78
2021/07/12 08:33:57;;;;;;;3.33;1.52;;;;;;;25.88;47.24;95803.28;5029049;28;20029;-78
2021/07/12 08:36:24;;;;;;;2.28;1.30;;;;;;;23.74;51.79;95804.31;5010605;28;20033;-78
2021/07/12 08:38:50;;;;;;;2.33;1.10;;;;;;;24.90;48.75;95810.13;5024532;28;20022;-78
2021/07/12 08:41:16;;;;;;;7.65;1.13;;;;;;;24.15;51.34;95804.72;5010994;28;20084;-79
2021/07/12 08:43:42;;;;;;;1.45;0.80;;;;;;;25.31;47.36;95788.81;5033741;28;20032;-78
2021/07/12 08:46:09;;;;;;;7.30;1.20;;;;;;;25.05;48.26;95779.78;5020589;28;20045;-78
2021/07/12 08:48:35;;;;;;;2.88;1.30;;;;;;;25.21;49.08;95780.69;5027933;28;20650;-78
2021/07/12 08:51:02;;;;;;;2.28;1.10;;;;;;;25.27;49.75;95782.34;5008256;28;20033;-78
2021/07/12 08:53:28;;;;;;;2.33;1.20;;;;;;;25.64;49.78;95782.19;5026416;28;20029;-78
2021/07/12 08:55:55;;;;;;;1.73;0.90;;;;;;;25.55;48.90;95783.78;5019844;28;20036;-78
2021/07/12 08:58:23;;;;;;;2.28;1.08;;;;;;;23.98;50.00;95791.41;5007134;28;20048;-79
2021/07/12 09:00:55;;;;;;;1.63;1.17;;;;;;;24.34;49.45;95786.31;5008881;28;20017;-78
2021/07/12 09:04:01;;;;;;;1.73;0.88;;;;;;;25.17;48.17;95785.81;5003426;28;20099;-79
2021/07/12 09:06:27;;;;;;;2.55;1.17;;;;;;;25.09;47.68;95783.59;5021095;28;20041;-78
2021/07/12 09:09:00;;;;;;;2.00;0.90;;;;;;;25.00;47.06;95794.03;5028259;28;20027;-78
2021/07/12 09:11:33;;;;;;;1.85;0.77;;;;;;;25.58;46.08;95784.06;5009712;28;20056;-79
2021/07/12 09:14:03;;;;;;;2.70;1.10;;;;;;;25.54;46.42;95774.91;5028178;28;20128;-79
2021/07/12 09:16:32;;;;;;;0.70;0.70;;;;;;;26.05;43.19;95771.50;5028522;28;20033;-78
2021/07/12 09:19:13;;;;;;;2.28;1.35;;;;;;;26.68;43.09;95776.66;5028163;28;20164;-79
2021/07/12 09:21:41;;;;;;;1.38;1.00;;;;;;;26.36;45.77;95772.34;5028599;28;20732;-79
2021/07/12 09:24:17;;;;;;;1.67;0.98;;;;;;;26.89;45.90;95770.13;5013480;28;20056;-78
2021/07/12 09:26:49;;;;;;;1.90;1.00;;;;;;;25.72;50.23;95770.09;5035793;28;20035;-79
2021/07/12 09:29:26;;;;;;;2.20;1.00;;;;;;;26.00;45.55;95769.63;5057011;28;20541;-79
2021/07/12 09:31:53;;;;;;;2.25;1.08;;;;;;;26.60;43.62;95756.44;5013848;28;20060;-80
2021/07/12 09:34:20;;;;;;;1.60;1.02;;;;;;;25.19;46.49;95754.06;5023022;28;20104;-80
2021/07/12 09:36:47;;;;;;;1.88;1.25;;;;;;;26.27;45.78;95749.69;5041485;28;20037;-81
2021/07/12 09:39:32;;;;;;;2.25;1.13;;;;;;;26.92;44.50;95747.97;5039870;28;20029;-78
2021/07/12 09:42:05;;;;;;;3.35;1.10;;;;;;;26.27;43.04;95758.59;5050240;28;20091;-79
2021/07/12 09:44:32;;;;;;;1.92;1.05;;;;;;;25.79;42.60;95768.78;5021526;28;20029;-79
2021/07/12 09:47:10;;;;;;;2.13;1.02;;;;;;;26.97;42.59;95756.06;5029268;28;20029;-79
2021/07/12 09:49:37;;;;;;;2.45;1.20;;;;;;;26.15;44.44;95771.53;5033919;28;20029;-79
2021/07/12 09:52:09;;;;;;;2.58;1.30;;;;;;;26.17;43.81;95768.56;5020179;28;20648;-79
2021/07/12 09:54:38;;;;;;;1.88;1.20;;;;;;;26.38;43.74;95761.28;5011149;28;20443;-79
2021/07/12 09:57:05;;;;;;;2.35;1.50;;;;;;;25.20;46.65;95760.25;5030136;28;20024;-79
2021/07/12 09:59:32;;;;;;;1.80;1.02;;;;;;;25.86;45.43;95763.16;5050699;28;20436;-79
2021/07/12 10:01:59;;;;;;;1.30;1.00;;;;;;;26.16;45.44;95761.56;5015935;28;20040;-79
2021/07/12 10:04:25;;;;;;;2.15;1.17;;;;;;;26.21;43.75;95748.88;5017487;28;20029;-78
2021/07/12 10:06:53;;;;;;;2.72;1.77;;;;;;;26.50;44.32;95746.47;5013989;28;20055;-78
2021/07/12 10:09:24;;;;;;;2.80;1.52;;;;;;;26.10;45.61;95742.69;5032749;28;20521;-79
2021/07/12 10:11:52;;;;;;;2.78;1.33;;;;;;;25.73;47.56;95748.28;5034587;28;20029;-79
2021/07/12 10:14:18;;;;;;;1.98;1.30;;;;;;;26.69;45.17;95737.78;5032601;28;20028;-80
2021/07/12 10:16:50;;;;;;;1.70;1.00;;;;;;;26.24;45.56;95739.47;5007146;28;20142;-80
2021/07/12 10:19:16;;;;;;;2.40;1.27;;;;;;;26.43;43.62;95756.69;5015998;28;20043;-79
2021/07/12 10:21:52;;;;;;;2.28;1.27;;;;;;;26.02;44.09;95753.19;5021931;28;20549;-79
2021/07/12 10:24:26;;;;;;;3.20;1.23;;;;;;;26.67;43.53;95750.75;5013076;28;20037;-79
2021/07/12 10:26:57;;;;;;;1.83;1.27;;;;;;;25.44;43.89;95747.94;5011475;28;20572;-79
2021/07/12 10:29:31;;;;;;;1.55;1.00;;;;;;;26.65;43.55;95752.91;5001280;28;20044;-78
2021/07/12 10:32:06;;;;;;;2.00;1.20;;;;;;;27.07;42.47;95757.94;5010359;28;20037;-78
2021/07/12 10:34:37;;;;;;;3.60;1.20;;;;;;;26.68;42.44;95750.47;5033634;28;20082;-79
2021/07/12 10:37:26;;;;;;;2.72;1.17;;;;;;;25.82;44.51;95762.88;5048311;28;20043;-79
2021/07/12 10:40:08;;;;;;;2.83;1.55;;;;;;;25.37;46.15;95750.88;5028323;28;20040;-78
2021/07/12 10:42:45;;;;;;;2.15;1.35;;;;;;;26.41;43.48;95737.28;5024808;28;20036;-79
2021/07/12 10:45:11;;;;;;;1.55;1.00;;;;;;;26.41;43.96;95736.47;5023789;28;20040;-80
2021/07/12 10:47:51;;;;;;;2.78;1.10;;;;;;;26.01;44.24;95730.81;5024178;28;20401;-78
2021/07/12 10:50:38;;;;;;;1.55;1.00;;;;;;;26.03;43.33;95725.19;5029812;28;20025;-80
2021/07/12 10:53:24;;;;;;;1.98;1.20;;;;;;;25.69;44.47;95730.22;5030004;28;20032;-79
2021/07/12 10:56:03;;;;;;;3.00;1.20;;;;;;;25.47;43.17;95720.50;5027081;28;20666;-80
2021/07/12 10:58:32;;;;;;;2.28;1.33;;;;;;;26.39;42.50;95712.50;5017743;28;20427;-80
2021/07/12 11:01:02;;;;;;;2.45;1.30;;;;;;;26.12;43.55;95731.63;5027391;28;20079;-79
2021/07/12 11:03:40;;;;;;;1.67;1.27;;;;;;;27.19;42.85;95719.84;5031490;28;20029;-80
2021/07/12 11:06:08;;;;;;;3.55;1.40;;;;;;;25.76;42.96;95720.03;5041238;28;20486;-79
2021/07/12 11:08:43;;;;;;;2.38;1.33;;;;;;;25.41;42.22;95724.25;5047822;28;20020;-80
2021/07/12 11:11:10;;;;;;;3.42;1.25;;;;;;;26.65;42.02;95715.16;5029945;28;20037;-79
2021/07/12 11:13:54;;;;;;;2.22;1.10;;;;;;;25.10;44.84;95729.50;5014442;28;20470;-80
2021/07/12 11:16:37;;;;;;;1.77;1.25;;;;;;;25.94;42.51;95726.78;5031402;28;20731;-79
2021/07/12 11:19:19;;;;;;;2.63;1.67;;;;;;;26.05;44.30;95733.78;5046241;28;20033;-80
2021/07/12 11:21:48;;;;;;;6.57;3.67;;;;;;;25.99;43.59;95738.38;5021004;28;20484;-78
2021/07/12 11:24:19;;;;;;;3.20;1.80;;;;;;;26.54;41.75;95725.97;5031732;28;20025;-79
2021/07/12 11:26:47;;;;;;;3.78;1.95;;;;;;;26.59;41.60;95733.22;5031877;28;20025;-81
2021/07/12 11:29:28;;;;;;;2.17;1.45;;;;;;;26.70;41.78;95736.72;5031490;28;20017;-81
2021/07/12 11:32:07;;;;;;;6.97;3.97;;;;;;;27.23;41.76;95737.94;5026463;28;20619;-81
2021/07/12 11:34:54;;;;;;;2.60;1.50;;;;;;;27.39;40.59;95725.13;5035314;28;20043;-79
2021/07/12 11:37:26;;;;;;;3.42;2.15;;;;;;;27.53;39.68;95738.03;5032616;28;20037;-80
2021/07/12 11:39:55;;;;;;;4.63;2.30;;;;;;;27.18;41.82;95739.84;5057427;28;20025;-80
2021/07/12 11:42:42;;;;;;;2.88;1.52;;;;;;;27.38;39.65;95723.53;5030414;28;20409;-80